createdAt,value
2018-11-28T00:00:41.473Z,102510.71
2018-11-28T00:03:30.585Z,102506.55
2018-11-28T00:05:59.913Z,102507.02
2018-11-28T00:08:29.213Z,102510.50
2018-11-28T00:10:58.508Z,102512.91
2018-11-28T00:13:27.825Z,102503.09
2018-11-28T00:15:57.153Z,102494.85
2018-11-28T00:18:26.454Z,102491.30
2018-11-28T00:20:55.756Z,102489.93
2018-11-28T00:23:25.076Z,102487.21
2018-11-28T00:25:58.798Z,102488.57
2018-11-28T00:28:24.534Z,102477.92
2018-11-28T00:30:53.830Z,102485.48
2018-11-28T00:33:23.128Z,102483.08
2018-11-28T00:35:52.397Z,102485.25
2018-11-28T00:38:21.694Z,102484.73
2018-11-28T00:40:51.001Z,102485.25
2018-11-28T00:43:20.293Z,102487.97
2018-11-28T00:45:49.595Z,102495.09
2018-11-28T00:48:18.906Z,102488.05
2018-11-28T00:50:48.203Z,102494.02
2018-11-28T00:53:17.496Z,102484.20
2018-11-28T00:55:48.551Z,102489.05
2018-11-28T00:58:16.993Z,102493.05
2018-11-28T01:00:46.306Z,102492.44
2018-11-28T01:03:15.607Z,102501.20
2018-11-28T01:05:44.907Z,102496.29
2018-11-28T01:08:14.208Z,102493.88
2018-11-28T01:10:43.544Z,102503.41
2018-11-28T01:13:12.830Z,102489.48
2018-11-28T01:15:42.156Z,102483.76
2018-11-28T01:18:11.478Z,102485.95
2018-11-28T01:20:40.778Z,102491.60
2018-11-28T01:23:10.074Z,102486.16
2018-11-28T01:25:39.384Z,102486.48
2018-11-28T01:28:08.685Z,102491.08
2018-11-28T01:30:37.966Z,102495.69
2018-11-28T01:33:07.690Z,102497.52
2018-11-28T01:35:36.986Z,102490.40
2018-11-28T01:38:06.387Z,102489.80
2018-11-28T01:40:35.692Z,102490.78
2018-11-28T01:43:05.018Z,102498.19
2018-11-28T01:45:34.305Z,102485.11
2018-11-28T01:48:03.633Z,102490.03
2018-11-28T01:50:32.927Z,102492.47
2018-11-28T01:53:02.224Z,102489.95
2018-11-28T01:55:31.502Z,102488.30
2018-11-28T01:58:01.006Z,102484.98
2018-11-28T02:00:30.311Z,102484.14
2018-11-28T02:03:18.647Z,102478.94
2018-11-28T02:05:47.959Z,102472.89
2018-11-28T02:08:17.281Z,102469.41
2018-11-28T02:10:46.561Z,102475.38
2018-11-28T02:13:15.903Z,102469.62
2018-11-28T02:15:45.188Z,102472.89
2018-11-28T02:18:14.506Z,102473.94
2018-11-28T02:20:43.830Z,102477.48
2018-11-28T02:23:13.129Z,102475.61
2018-11-28T02:25:42.427Z,102476.97
2018-11-28T02:28:11.791Z,102482.09
2018-11-28T02:30:41.070Z,102485.89
2018-11-28T02:33:10.396Z,102469.85
2018-11-28T02:35:39.687Z,102466.84
2018-11-28T02:38:09.064Z,102473.24
2018-11-28T02:40:38.349Z,102483.08
2018-11-28T02:43:08.057Z,102490.64
2018-11-28T02:45:37.357Z,102481.64
2018-11-28T02:48:06.834Z,102491.39
2018-11-28T02:50:36.177Z,102492.98
2018-11-28T02:53:05.477Z,102495.70
2018-11-28T02:55:34.783Z,102496.46
2018-11-28T02:58:04.064Z,102499.19
2018-11-28T03:00:33.379Z,102498.58
2018-11-28T03:03:02.673Z,102505.38
2018-11-28T03:05:31.975Z,102508.09
2018-11-28T03:08:01.261Z,102506.12
2018-11-28T03:10:30.564Z,102505.20
2018-11-28T03:12:59.846Z,102498.41
2018-11-28T03:15:47.863Z,102494.33
2018-11-28T03:18:17.491Z,102500.23
2018-11-28T03:20:46.802Z,102501.51
2018-11-28T03:23:16.102Z,102500.38
2018-11-28T03:25:45.438Z,102503.10
2018-11-28T03:28:14.722Z,102501.27
2018-11-28T03:30:44.040Z,102501.74
2018-11-28T03:33:13.360Z,102507.70
2018-11-28T03:35:42.670Z,102512.81
2018-11-28T03:38:11.960Z,102515.34
2018-11-28T03:40:41.287Z,102515.02
2018-11-28T03:43:10.569Z,102508.69
2018-11-28T03:45:39.877Z,102502.03
2018-11-28T03:48:09.231Z,102498.16
2018-11-28T03:50:38.518Z,102491.91
2018-11-28T03:53:07.924Z,102487.23
2018-11-28T03:55:37.246Z,102492.34
2018-11-28T03:58:06.529Z,102494.45
2018-11-28T04:00:35.816Z,102491.97
2018-11-28T04:03:05.103Z,102489.77
2018-11-28T04:05:34.384Z,102486.22
2018-11-28T04:08:03.730Z,102486.22
2018-11-28T04:10:33.127Z,102478.38
2018-11-28T04:13:02.446Z,102470.45
2018-11-28T04:15:31.704Z,102472.02
2018-11-28T04:18:01.000Z,102472.25
2018-11-28T04:20:30.293Z,102464.01
2018-11-28T04:22:59.601Z,102464.56
2018-11-28T04:25:28.880Z,102473.75
2018-11-28T04:27:58.193Z,102466.95
2018-11-28T04:30:27.476Z,102478.67
2018-11-28T04:32:57.053Z,102469.67
2018-11-28T04:35:26.344Z,102484.11
2018-11-28T04:37:55.682Z,102473.75
2018-11-28T04:40:24.981Z,102473.75
2018-11-28T04:42:54.289Z,102476.47
2018-11-28T04:45:26.608Z,102463.72
2018-11-28T04:47:56.444Z,102464.33
2018-11-28T04:50:25.737Z,102463.25
2018-11-28T04:52:55.041Z,102470.00
2018-11-28T04:55:43.907Z,102478.15
2018-11-28T04:58:13.205Z,102475.62
2018-11-28T05:00:42.494Z,102473.47
2018-11-28T05:03:11.794Z,102483.17
2018-11-28T05:05:41.100Z,102476.38
2018-11-28T05:08:10.394Z,102490.81
2018-11-28T05:10:39.712Z,102489.16
2018-11-28T05:13:09.060Z,102492.69
2018-11-28T05:15:38.365Z,102496.25
2018-11-28T05:18:07.644Z,102499.48
2018-11-28T05:20:36.915Z,102495.87
2018-11-28T05:23:07.220Z,102500.98
2018-11-28T05:25:36.853Z,102500.93
2018-11-28T05:28:06.165Z,102502.28
2018-11-28T05:30:35.744Z,102508.76
2018-11-28T05:33:05.669Z,102501.73
2018-11-28T05:35:54.024Z,102494.33
2018-11-28T05:38:23.312Z,102490.48
2018-11-28T05:40:52.605Z,102486.27
2018-11-28T05:43:21.885Z,102489.73
2018-11-28T05:45:51.175Z,102491.29
2018-11-28T05:48:20.483Z,102486.84
2018-11-28T05:50:49.769Z,102486.55
2018-11-28T05:53:19.068Z,102487.58
2018-11-28T05:55:48.389Z,102496.25
2018-11-28T05:58:17.695Z,102495.64
2018-11-28T06:00:47.006Z,102499.43
2018-11-28T06:03:16.279Z,102498.59
2018-11-28T06:05:45.579Z,102492.92
2018-11-28T06:08:14.986Z,102505.38
2018-11-28T06:10:44.322Z,102498.81
2018-11-28T06:13:13.618Z,102499.34
2018-11-28T06:15:42.914Z,102500.70
2018-11-28T06:18:12.240Z,102501.21
2018-11-28T06:20:41.530Z,102498.20
2018-11-28T06:23:10.793Z,102493.61
2018-11-28T06:25:40.079Z,102497.98
2018-11-28T06:28:09.361Z,102499.05
2018-11-28T06:30:38.646Z,102501.16
2018-11-28T06:33:07.958Z,102498.95
2018-11-28T06:35:37.251Z,102499.47
2018-11-28T06:38:06.535Z,102496.47
2018-11-28T06:40:35.850Z,102498.58
2018-11-28T06:43:05.141Z,102501.28
2018-11-28T06:45:34.481Z,102499.19
2018-11-28T06:48:03.786Z,102497.83
2018-11-28T06:50:33.078Z,102501.90
2018-11-28T06:53:02.388Z,102498.72
2018-11-28T06:55:31.717Z,102500.31
2018-11-28T06:58:01.048Z,102504.91
2018-11-28T07:00:30.321Z,102505.75
2018-11-28T07:02:59.581Z,102504.91
2018-11-28T07:05:28.872Z,102497.08
2018-11-28T07:07:58.138Z,102498.20
2018-11-28T07:10:27.428Z,102493.61
2018-11-28T07:12:56.689Z,102490.44
2018-11-28T07:15:28.568Z,102502.38
2018-11-28T07:18:35.900Z,102503.41
2018-11-28T07:21:05.176Z,102502.89
2018-11-28T07:23:34.435Z,102504.16
2018-11-28T07:26:03.701Z,102506.88
2018-11-28T07:28:32.972Z,102503.12
2018-11-28T07:31:02.271Z,102498.50
2018-11-28T07:33:31.641Z,102498.81
2018-11-28T07:36:00.926Z,102504.77
2018-11-28T07:38:30.193Z,102495.03
2018-11-28T07:40:59.491Z,102502.66
2018-11-28T07:43:28.846Z,102502.98
2018-11-28T07:45:58.087Z,102509.03
2018-11-28T07:48:27.364Z,102509.17
2018-11-28T07:50:56.678Z,102511.98
2018-11-28T07:53:25.947Z,102504.22
2018-11-28T07:55:55.221Z,102509.51
2018-11-28T07:58:24.496Z,102506.74
2018-11-28T08:00:53.777Z,102514.84
2018-11-28T08:03:23.060Z,102513.72
2018-11-28T08:05:52.354Z,102517.27
2018-11-28T08:08:21.624Z,102520.02
2018-11-28T08:10:50.910Z,102513.36
2018-11-28T08:13:20.180Z,102510.41
2018-11-28T08:15:49.537Z,102511.48
2018-11-28T08:18:18.833Z,102509.28
2018-11-28T08:20:48.120Z,102509.20
2018-11-28T08:23:17.400Z,102501.88
2018-11-28T08:25:46.677Z,102514.89
2018-11-28T08:28:15.942Z,102518.53
2018-11-28T08:30:45.223Z,102519.06
2018-11-28T08:33:14.493Z,102510.45
2018-11-28T08:35:43.783Z,102518.83
2018-11-28T08:38:13.060Z,102522.59
2018-11-28T08:40:42.347Z,102509.52
2018-11-28T08:43:11.617Z,102505.19
2018-11-28T08:45:40.897Z,102515.60
2018-11-28T08:48:10.170Z,102510.92
2018-11-28T08:50:39.789Z,102507.44
2018-11-28T08:53:09.082Z,102507.91
2018-11-28T08:55:38.350Z,102509.80
2018-11-28T08:58:07.659Z,102496.50
2018-11-28T09:00:37.291Z,102518.17
2018-11-28T09:03:07.047Z,102516.20
2018-11-28T09:05:36.343Z,102511.88
2018-11-28T09:08:05.629Z,102506.67
2018-11-28T09:10:34.897Z,102493.42
2018-11-28T09:13:04.541Z,102493.33
2018-11-28T09:15:34.377Z,102485.52
2018-11-28T09:18:03.655Z,102481.34
2018-11-28T09:20:33.895Z,102494.32
2018-11-28T09:23:03.114Z,102499.39
2018-11-28T09:25:32.385Z,102501.99
2018-11-28T09:28:01.710Z,102503.02
2018-11-28T09:30:31.073Z,102510.43
2018-11-28T09:33:00.434Z,102508.73
2018-11-28T09:35:29.713Z,102504.68
2018-11-28T09:37:59.000Z,102503.67
2018-11-28T09:40:28.525Z,102490.18
2018-11-28T09:43:01.255Z,102495.73
2018-11-28T09:45:30.511Z,102495.28
2018-11-28T09:47:59.788Z,102490.70
2018-11-28T09:50:29.099Z,102490.04
2018-11-28T09:52:58.379Z,102473.33
2018-11-28T09:55:28.693Z,102477.73
2018-11-28T09:57:58.698Z,102485.60
2018-11-28T10:00:28.825Z,102479.45
2018-11-28T10:03:01.909Z,102464.52
2018-11-28T10:05:34.777Z,102471.44
2018-11-28T10:08:04.430Z,102471.16
2018-11-28T10:10:33.756Z,102473.73
2018-11-28T10:13:03.053Z,102459.15
2018-11-28T10:15:35.457Z,102459.81
2018-11-28T10:18:02.524Z,102463.62
2018-11-28T10:20:31.799Z,102467.64
2018-11-28T10:23:01.116Z,102466.47
2018-11-28T10:25:30.393Z,102459.28
2018-11-28T10:28:18.741Z,102451.23
2018-11-28T10:30:48.028Z,102450.69
2018-11-28T10:33:17.356Z,102449.98
2018-11-28T10:35:46.700Z,102446.28
2018-11-28T10:38:15.951Z,102448.42
2018-11-28T10:40:45.238Z,102438.11
2018-11-28T10:43:14.603Z,102436.36
2018-11-28T10:45:44.081Z,102431.08
2018-11-28T10:48:13.767Z,102437.05
2018-11-28T10:50:43.014Z,102425.98
2018-11-28T10:53:12.316Z,102428.88
2018-11-28T10:55:41.575Z,102425.39
2018-11-28T10:58:10.943Z,102421.05
2018-11-28T11:00:58.955Z,102419.33
2018-11-28T11:03:47.012Z,102410.34
2018-11-28T11:06:35.141Z,102412.77
2018-11-28T11:09:24.047Z,102408.73
2018-11-28T11:12:12.067Z,102404.45
2018-11-28T11:15:00.123Z,102402.28
2018-11-28T11:17:29.412Z,102407.59
2018-11-28T11:19:58.698Z,102409.84
2018-11-28T11:22:27.994Z,102403.21
2018-11-28T11:24:57.272Z,102423.96
2018-11-28T11:27:26.527Z,102410.79
2018-11-28T11:30:03.165Z,102407.54
2018-11-28T11:32:32.469Z,102424.24
2018-11-28T11:35:01.764Z,102411.77
2018-11-28T11:37:31.015Z,102413.55
2018-11-28T11:40:00.314Z,102415.42
2018-11-28T11:42:29.572Z,102394.58
2018-11-28T11:45:18.445Z,102389.04
2018-11-28T11:47:47.714Z,102388.48
2018-11-28T11:50:17.933Z,102393.41
2018-11-28T11:52:47.322Z,102384.42
2018-11-28T11:55:17.667Z,102386.09
2018-11-28T11:57:47.076Z,102379.77
2018-11-28T12:00:18.097Z,102368.98
2018-11-28T12:03:16.679Z,102365.48
2018-11-28T12:06:05.089Z,102368.89
2018-11-28T12:08:34.357Z,102365.02
2018-11-28T12:11:03.764Z,102367.38
2018-11-28T12:13:33.050Z,102366.20
2018-11-28T12:16:02.399Z,102358.95
2018-11-28T12:18:31.738Z,102358.31
2018-11-28T12:21:20.078Z,102350.19
2018-11-28T12:23:49.356Z,102352.77
2018-11-28T12:26:18.664Z,102357.27
2018-11-28T12:28:47.940Z,102357.77
2018-11-28T12:31:17.247Z,102356.71
2018-11-28T12:33:46.551Z,102346.69
2018-11-28T12:36:15.839Z,102348.69
2018-11-28T12:38:45.147Z,102344.54
2018-11-28T12:41:14.455Z,102337.08
2018-11-28T12:43:43.727Z,102338.19
2018-11-28T12:46:13.013Z,102337.59
2018-11-28T12:48:42.286Z,102331.04
2018-11-28T12:51:11.574Z,102327.25
2018-11-28T12:53:40.828Z,102322.98
2018-11-28T12:56:10.108Z,102326.89
2018-11-28T12:58:39.412Z,102321.79
2018-11-28T13:01:08.702Z,102315.77
2018-11-28T13:03:37.975Z,102311.34
2018-11-28T13:06:07.383Z,102313.02
2018-11-28T13:08:39.110Z,102309.92
2018-11-28T13:11:09.126Z,102322.45
2018-11-28T13:13:38.410Z,102309.80
2018-11-28T13:16:07.709Z,102307.27
2018-11-28T13:18:37.029Z,102316.81
2018-11-28T13:21:06.321Z,102304.84
2018-11-28T13:23:35.601Z,102303.75
2018-11-28T13:26:05.050Z,102304.84
2018-11-28T13:28:34.328Z,102288.74
2018-11-28T13:31:03.593Z,102291.20
2018-11-28T13:33:32.886Z,102284.91
2018-11-28T13:36:02.146Z,102287.91
2018-11-28T13:38:31.418Z,102286.02
2018-11-28T13:41:00.729Z,102286.80
2018-11-28T13:43:30.013Z,102274.77
2018-11-28T13:45:59.288Z,102278.34
2018-11-28T13:48:28.567Z,102268.20
2018-11-28T13:50:57.880Z,102268.48
2018-11-28T13:53:27.186Z,102272.30
2018-11-28T13:58:30.300Z,102269.25
2018-11-28T14:00:59.565Z,102265.95
2018-11-28T14:03:28.839Z,102262.36
2018-11-28T14:05:58.104Z,102255.81
2018-11-28T14:08:27.392Z,102252.81
2018-11-28T14:10:56.691Z,102258.80
2018-11-28T14:13:26.015Z,102253.87
2018-11-28T14:15:55.243Z,102250.28
2018-11-28T14:18:24.520Z,102249.14
2018-11-28T14:20:53.794Z,102243.66
2018-11-28T14:23:23.068Z,102243.66
2018-11-28T14:25:52.337Z,102250.17
2018-11-28T14:28:21.621Z,102250.70
2018-11-28T14:30:50.917Z,102260.25
2018-11-28T14:33:20.224Z,102252.56
2018-11-28T14:35:49.505Z,102246.86
2018-11-28T14:38:18.776Z,102245.22
2018-11-28T14:40:48.062Z,102240.34
2018-11-28T14:43:17.373Z,102243.94
2018-11-28T14:45:46.657Z,102243.08
2018-11-28T14:48:15.943Z,102226.41
2018-11-28T14:50:45.208Z,102229.08
2018-11-28T14:53:14.485Z,102222.51
2018-11-28T14:55:43.775Z,102221.09
2018-11-28T14:58:13.867Z,102236.65
2018-11-28T15:00:43.269Z,102259.47
2018-11-28T15:03:31.616Z,102241.73
2018-11-28T15:06:38.940Z,102242.24
2018-11-28T15:09:29.194Z,102247.64
2018-11-28T15:11:58.478Z,102231.00
2018-11-28T15:14:27.836Z,102218.42
2018-11-28T15:16:57.169Z,102200.89
2018-11-28T15:19:26.484Z,102219.73
2018-11-28T15:21:55.738Z,102214.27
2018-11-28T15:24:25.021Z,102210.19
2018-11-28T15:26:54.360Z,102217.06
2018-11-28T15:29:23.659Z,102210.19
2018-11-28T15:31:52.938Z,102201.20
2018-11-28T15:34:22.235Z,102178.55
2018-11-28T15:36:51.540Z,102183.17
2018-11-28T15:39:20.836Z,102181.48
2018-11-28T15:41:50.120Z,102173.05
2018-11-28T15:44:19.957Z,102174.91
2018-11-28T15:46:49.586Z,102166.95
2018-11-28T15:49:18.844Z,102171.30
2018-11-28T15:51:48.129Z,102170.44
2018-11-28T15:54:17.407Z,102179.67
2018-11-28T15:56:46.794Z,102174.16
2018-11-28T15:59:16.093Z,102179.34
2018-11-28T16:01:45.392Z,102185.01
2018-11-28T16:04:14.676Z,102189.08
2018-11-28T16:06:43.975Z,102186.04
2018-11-28T16:09:32.031Z,102187.98
2018-11-28T16:12:01.592Z,102185.26
2018-11-28T16:14:30.881Z,102182.78
2018-11-28T16:17:00.176Z,102182.45
2018-11-28T16:19:29.484Z,102179.95
2018-11-28T16:21:58.778Z,102174.22
2018-11-28T16:24:28.219Z,102183.75
2018-11-28T16:26:57.504Z,102184.53
2018-11-28T16:29:26.767Z,102183.17
2018-11-28T16:31:56.065Z,102177.97
2018-11-28T16:34:25.338Z,102174.69
2018-11-28T16:36:54.745Z,102178.19
2018-11-28T16:39:24.020Z,102175.19
2018-11-28T16:41:53.316Z,102165.92
2018-11-28T16:44:22.588Z,102177.41
2018-11-28T16:46:51.871Z,102168.66
2018-11-28T16:49:21.139Z,102167.29
2018-11-28T16:51:50.412Z,102166.77
2018-11-28T16:54:19.769Z,102170.02
2018-11-28T16:56:49.041Z,102163.20
2018-11-28T16:59:18.313Z,102166.52
2018-11-28T17:02:06.669Z,102158.59
2018-11-28T17:04:35.951Z,102155.33
2018-11-28T17:07:05.244Z,102138.98
2018-11-28T17:09:34.501Z,102141.70
2018-11-28T17:12:03.802Z,102135.95
2018-11-28T17:14:33.118Z,102138.78
2018-11-28T17:17:02.411Z,102131.97
2018-11-28T17:19:31.637Z,102133.86
2018-11-28T17:22:00.907Z,102135.23
2018-11-28T17:24:30.170Z,102129.77
2018-11-28T17:26:59.454Z,102135.28
2018-11-28T17:29:28.721Z,102135.03
2018-11-28T17:31:58.002Z,102134.55
2018-11-28T17:34:27.261Z,102117.89
2018-11-28T17:36:56.547Z,102120.67
2018-11-28T17:39:25.849Z,102114.33
2018-11-28T17:41:55.123Z,102112.17
2018-11-28T17:44:24.412Z,102114.31
2018-11-28T17:47:13.577Z,102107.25
2018-11-28T17:49:43.175Z,102102.91
2018-11-28T17:52:13.057Z,102118.98
2018-11-28T17:54:42.327Z,102103.44
2018-11-28T17:57:11.620Z,102108.94
2018-11-28T17:59:40.904Z,102097.51
2018-11-28T18:02:10.217Z,102098.36
2018-11-28T18:04:39.479Z,102080.31
2018-11-28T18:07:08.769Z,102084.66
2018-11-28T18:09:38.025Z,102071.94
2018-11-28T18:12:06.764Z,102083.09
2018-11-28T18:14:36.051Z,102077.34
2018-11-28T18:17:05.375Z,102061.29
2018-11-28T18:19:34.656Z,102070.83
2018-11-28T18:22:03.913Z,102064.59
2018-11-28T18:24:33.196Z,102065.95
2018-11-28T18:27:02.472Z,102074.72
2018-11-28T18:29:31.755Z,102078.28
2018-11-28T18:32:01.087Z,102073.94
2018-11-28T18:34:30.367Z,102086.51
2018-11-28T18:36:59.635Z,102074.19
2018-11-28T18:39:28.922Z,102071.46
2018-11-28T18:41:58.182Z,102078.86
2018-11-28T18:44:27.463Z,102071.78
2018-11-28T18:46:56.734Z,102071.26
2018-11-28T18:49:26.025Z,102069.64
2018-11-28T18:51:55.380Z,102063.13
2018-11-28T18:54:26.381Z,102068.59
2018-11-28T18:56:55.645Z,102072.69
2018-11-28T18:59:24.941Z,102058.20
2018-11-28T19:01:56.684Z,102053.86
2018-11-28T19:04:25.970Z,102058.78
2018-11-28T19:06:55.272Z,102071.05
2018-11-28T19:09:43.284Z,102065.55
2018-11-28T19:12:12.589Z,102057.09
2018-11-28T19:14:41.900Z,102071.84
2018-11-28T19:17:11.189Z,102061.46
2018-11-28T19:19:40.426Z,102050.86
2018-11-28T19:22:09.689Z,102057.68
2018-11-28T19:24:38.971Z,102037.81
2018-11-28T19:27:08.254Z,102039.70
2018-11-28T19:29:37.538Z,102038.08
2018-11-28T19:32:07.221Z,102032.36
2018-11-28T19:34:36.505Z,102033.16
2018-11-28T19:37:05.754Z,102019.83
2018-11-28T19:39:35.042Z,102013.55
2018-11-28T19:42:05.054Z,102012.18
2018-11-28T19:44:34.516Z,102010.81
2018-11-28T19:47:03.764Z,102006.45
2018-11-28T19:49:33.074Z,102012.70
2018-11-28T19:52:02.364Z,102025.28
2018-11-28T19:54:31.644Z,102027.70
2018-11-28T19:57:00.914Z,102021.24
2018-11-28T19:59:30.186Z,102013.86
2018-11-28T20:01:59.449Z,101992.89
2018-11-28T20:04:28.746Z,101982.81
2018-11-28T20:06:58.008Z,101999.70
2018-11-28T20:09:27.307Z,101993.67
2018-11-28T20:11:56.574Z,102004.32
2018-11-28T20:14:25.853Z,102005.11
2018-11-28T20:16:55.121Z,101998.85
2018-11-28T20:19:24.401Z,101999.13
2018-11-28T20:21:53.743Z,102012.80
2018-11-28T20:24:23.088Z,102013.91
2018-11-28T20:29:52.983Z,102013.66
2018-11-28T20:32:22.256Z,102007.40
2018-11-28T20:34:51.630Z,101993.77
2018-11-28T20:37:21.468Z,101988.52
2018-11-28T20:39:50.729Z,101973.22
2018-11-28T20:42:19.996Z,101976.47
2018-11-28T20:44:49.284Z,101962.00
2018-11-28T20:50:10.559Z,101950.21
2018-11-28T20:52:40.094Z,101934.64
2018-11-28T20:55:10.591Z,101939.56
2018-11-28T20:57:39.854Z,101952.36
2018-11-28T21:00:11.944Z,101946.11
2018-11-28T21:02:41.241Z,101947.75
2018-11-28T21:05:10.521Z,101956.50
2018-11-28T21:07:39.795Z,101955.09
2018-11-28T21:10:31.859Z,101955.65
2018-11-28T21:13:01.370Z,101946.69
2018-11-28T21:15:31.319Z,101945.02
2018-11-28T21:20:49.019Z,101948.53
2018-11-28T21:23:19.541Z,101946.90
2018-11-28T21:25:49.357Z,101945.23
2018-11-28T21:31:07.369Z,101934.05
2018-11-28T21:33:36.638Z,101932.39
2018-11-28T21:36:06.019Z,101934.01
2018-11-28T21:41:23.686Z,101927.20
2018-11-28T21:43:52.974Z,101926.63
2018-11-28T21:48:56.973Z,101911.16
2018-11-28T21:51:26.227Z,101917.97
2018-11-28T21:56:43.892Z,101924.30
2018-11-28T21:59:32.753Z,101924.87
2018-11-28T22:02:02.040Z,101916.44
2018-11-28T22:04:31.311Z,101913.19
2018-11-28T22:07:00.595Z,101911.82
2018-11-28T22:12:22.012Z,101922.73
2018-11-28T22:14:51.275Z,101919.48
2018-11-28T22:17:20.566Z,101911.61
2018-11-28T22:19:49.878Z,101908.10
2018-11-28T22:22:19.175Z,101903.22
2018-11-28T22:24:48.452Z,101906.56
2018-11-28T22:27:17.745Z,101906.03
2018-11-28T22:30:06.240Z,101899.26
2018-11-28T22:32:35.511Z,101897.06
2018-11-28T22:35:04.780Z,101899.53
2018-11-28T22:37:34.054Z,101905.02
2018-11-28T22:40:03.319Z,101907.48
2018-11-28T22:42:32.610Z,101893.36
2018-11-28T22:45:01.887Z,101884.34
2018-11-28T22:47:50.215Z,101887.92
2018-11-28T22:50:19.511Z,101884.09
2018-11-28T22:52:48.790Z,101872.34
2018-11-28T22:55:18.677Z,101867.72
2018-11-28T22:57:47.951Z,101863.38
2018-11-28T23:00:55.387Z,101856.89
2018-11-28T23:03:44.257Z,101864.81
2018-11-28T23:06:13.546Z,101842.16
2018-11-28T23:08:42.812Z,101851.70
2018-11-28T23:11:12.099Z,101846.52
2018-11-28T23:13:41.361Z,101843.75
2018-11-28T23:16:10.638Z,101849.20
2018-11-28T23:18:39.919Z,101833.93
2018-11-28T23:21:09.226Z,101847.05
2018-11-28T23:23:38.491Z,101851.44
2018-11-28T23:26:07.786Z,101841.09
2018-11-28T23:28:37.099Z,101823.63
2018-11-28T23:31:06.590Z,101827.77
2018-11-28T23:33:35.887Z,101828.33
2018-11-28T23:36:05.162Z,101829.16
2018-11-28T23:38:34.440Z,101811.97
2018-11-28T23:41:03.717Z,101810.87
2018-11-28T23:43:32.983Z,101795.59
2018-11-28T23:46:02.293Z,101798.06
2018-11-28T23:48:31.568Z,101795.86
2018-11-28T23:51:00.838Z,101791.24
2018-11-28T23:53:30.113Z,101788.55
2018-11-28T23:55:59.385Z,101783.63
2018-11-28T23:58:28.671Z,101783.66
